sensor_id;sensor_type;location;lat;lon;timestamp;temperature;humidity
37380;DHT22;23252;-33.992;18.480;2023-06-14T00:01:50;15.30;99.90
37380;DHT22;23252;-33.992;18.480;2023-06-14T00:04:17;15.30;99.90
37380;DHT22;23252;-33.992;18.480;2023-06-14T00:06:45;15.30;99.90
37380;DHT22;23252;-33.992;18.480;2023-06-14T00:09:11;15.30;99.90
37380;DHT22;23252;-33.992;18.480;2023-06-14T00:11:43;15.30;99.90
37380;DHT22;23252;-33.992;18.480;2023-06-14T00:14:10;15.30;99.90
37380;DHT22;23252;-33.992;18.480;2023-06-14T00:16:37;15.20;99.90
37380;DHT22;23252;-33.992;18.480;2023-06-14T00:19:04;15.20;99.90
37380;DHT22;23252;-33.992;18.480;2023-06-14T00:21:32;15.20;99.90
37380;DHT22;23252;-33.992;18.480;2023-06-14T00:23:58;15.20;99.90
37380;DHT22;23252;-33.992;18.480;2023-06-14T00:26:25;15.20;99.90
37380;DHT22;23252;-33.992;18.480;2023-06-14T00:28:53;15.20;99.90
37380;DHT22;23252;-33.992;18.480;2023-06-14T00:31:20;15.20;99.90
37380;DHT22;23252;-33.992;18.480;2023-06-14T00:33:46;15.20;99.90
37380;DHT22;23252;-33.992;18.480;2023-06-14T00:36:13;15.20;99.90
37380;DHT22;23252;-33.992;18.480;2023-06-14T00:38:39;15.20;99.90
37380;DHT22;23252;-33.992;18.480;2023-06-14T00:41:06;15.20;99.90
37380;DHT22;23252;-33.992;18.480;2023-06-14T00:43:32;15.20;99.90
37380;DHT22;23252;-33.992;18.480;2023-06-14T00:46:01;15.20;99.90
37380;DHT22;23252;-33.992;18.480;2023-06-14T00:48:28;15.20;99.90
37380;DHT22;23252;-33.992;18.480;2023-06-14T00:50:55;15.30;99.90
37380;DHT22;23252;-33.992;18.480;2023-06-14T00:53:22;15.40;99.90
37380;DHT22;23252;-33.992;18.480;2023-06-14T00:55:49;15.30;99.90
37380;DHT22;23252;-33.992;18.480;2023-06-14T00:58:15;15.30;99.90
37380;DHT22;23252;-33.992;18.480;2023-06-14T01:00:42;15.30;99.90
37380;DHT22;23252;-33.992;18.480;2023-06-14T01:03:10;15.40;99.90
37380;DHT22;23252;-33.992;18.480;2023-06-14T01:05:38;15.40;99.90
37380;DHT22;23252;-33.992;18.480;2023-06-14T01:11:12;15.40;99.90
37380;DHT22;23252;-33.992;18.480;2023-06-14T01:13:43;15.40;99.90
37380;DHT22;23252;-33.992;18.480;2023-06-14T01:16:12;15.40;99.90
37380;DHT22;23252;-33.992;18.480;2023-06-14T01:18:38;15.40;99.90
37380;DHT22;23252;-33.992;18.480;2023-06-14T01:21:21;15.30;99.90
37380;DHT22;23252;-33.992;18.480;2023-06-14T01:23:47;15.30;99.90
37380;DHT22;23252;-33.992;18.480;2023-06-14T01:26:27;15.30;99.90
37380;DHT22;23252;-33.992;18.480;2023-06-14T01:28:55;15.40;99.90
37380;DHT22;23252;-33.992;18.480;2023-06-14T01:31:25;15.30;99.90
37380;DHT22;23252;-33.992;18.480;2023-06-14T01:33:52;15.40;99.90
37380;DHT22;23252;-33.992;18.480;2023-06-14T01:36:20;15.40;99.90
37380;DHT22;23252;-33.992;18.480;2023-06-14T01:38:50;15.40;99.90
37380;DHT22;23252;-33.992;18.480;2023-06-14T01:41:19;15.30;99.90
37380;DHT22;23252;-33.992;18.480;2023-06-14T01:43:47;15.40;99.90
37380;DHT22;23252;-33.992;18.480;2023-06-14T01:46:15;15.40;99.90
37380;DHT22;23252;-33.992;18.480;2023-06-14T01:48:43;15.40;99.90
37380;DHT22;23252;-33.992;18.480;2023-06-14T01:51:09;15.40;99.90
37380;DHT22;23252;-33.992;18.480;2023-06-14T01:53:36;15.50;99.90
37380;DHT22;23252;-33.992;18.480;2023-06-14T01:56:02;15.50;99.90
37380;DHT22;23252;-33.992;18.480;2023-06-14T01:58:29;15.50;99.90
37380;DHT22;23252;-33.992;18.480;2023-06-14T02:00:56;15.50;99.90
37380;DHT22;23252;-33.992;18.480;2023-06-14T02:03:22;15.60;99.90
37380;DHT22;23252;-33.992;18.480;2023-06-14T02:05:49;15.60;99.90
37380;DHT22;23252;-33.992;18.480;2023-06-14T02:08:16;15.60;99.90
37380;DHT22;23252;-33.992;18.480;2023-06-14T02:10:42;15.60;99.90
37380;DHT22;23252;-33.992;18.480;2023-06-14T02:13:09;15.60;99.90
37380;DHT22;23252;-33.992;18.480;2023-06-14T02:15:35;15.40;99.90
37380;DHT22;23252;-33.992;18.480;2023-06-14T02:18:03;15.00;99.90
37380;DHT22;23252;-33.992;18.480;2023-06-14T02:20:29;14.90;99.90
37380;DHT22;23252;-33.992;18.480;2023-06-14T02:22:56;14.90;99.90
37380;DHT22;23252;-33.992;18.480;2023-06-14T02:25:23;15.00;99.90
37380;DHT22;23252;-33.992;18.480;2023-06-14T02:27:49;14.90;99.90
37380;DHT22;23252;-33.992;18.480;2023-06-14T02:30:16;14.80;99.90
37380;DHT22;23252;-33.992;18.480;2023-06-14T02:32:43;14.90;99.90
37380;DHT22;23252;-33.992;18.480;2023-06-14T02:35:09;15.00;99.90
37380;DHT22;23252;-33.992;18.480;2023-06-14T02:37:36;14.90;99.90
37380;DHT22;23252;-33.992;18.480;2023-06-14T02:40:03;14.90;99.90
37380;DHT22;23252;-33.992;18.480;2023-06-14T02:42:30;14.90;99.90
37380;DHT22;23252;-33.992;18.480;2023-06-14T02:44:56;15.00;99.90
37380;DHT22;23252;-33.992;18.480;2023-06-14T02:47:23;14.90;99.90
37380;DHT22;23252;-33.992;18.480;2023-06-14T02:49:50;14.90;99.90
37380;DHT22;23252;-33.992;18.480;2023-06-14T02:52:16;14.90;99.90
37380;DHT22;23252;-33.992;18.480;2023-06-14T02:54:43;14.90;99.90
37380;DHT22;23252;-33.992;18.480;2023-06-14T02:57:09;15.00;99.90
37380;DHT22;23252;-33.992;18.480;2023-06-14T02:59:36;14.90;99.90
37380;DHT22;23252;-33.992;18.480;2023-06-14T03:02:03;14.90;99.90
37380;DHT22;23252;-33.992;18.480;2023-06-14T03:04:29;14.90;99.90
37380;DHT22;23252;-33.992;18.480;2023-06-14T03:07:00;14.90;99.90
37380;DHT22;23252;-33.992;18.480;2023-06-14T03:09:28;14.90;99.90
37380;DHT22;23252;-33.992;18.480;2023-06-14T03:11:55;14.90;99.90
37380;DHT22;23252;-33.992;18.480;2023-06-14T03:14:21;15.00;99.90
37380;DHT22;23252;-33.992;18.480;2023-06-14T03:16:48;15.00;99.90
37380;DHT22;23252;-33.992;18.480;2023-06-14T03:19:16;14.90;99.90
37380;DHT22;23252;-33.992;18.480;2023-06-14T03:21:42;14.90;99.90
37380;DHT22;23252;-33.992;18.480;2023-06-14T03:24:10;15.00;99.90
37380;DHT22;23252;-33.992;18.480;2023-06-14T03:26:37;15.00;99.90
37380;DHT22;23252;-33.992;18.480;2023-06-14T03:29:03;15.10;99.90
37380;DHT22;23252;-33.992;18.480;2023-06-14T03:31:30;15.20;99.90
37380;DHT22;23252;-33.992;18.480;2023-06-14T03:33:59;15.20;99.90
37380;DHT22;23252;-33.992;18.480;2023-06-14T03:36:26;15.20;99.90
37380;DHT22;23252;-33.992;18.480;2023-06-14T03:38:54;15.20;99.90
37380;DHT22;23252;-33.992;18.480;2023-06-14T03:41:23;15.20;99.90
37380;DHT22;23252;-33.992;18.480;2023-06-14T03:43:49;15.20;99.90
37380;DHT22;23252;-33.992;18.480;2023-06-14T03:46:16;15.20;99.90
37380;DHT22;23252;-33.992;18.480;2023-06-14T03:48:42;15.20;99.90
37380;DHT22;23252;-33.992;18.480;2023-06-14T03:51:09;15.20;99.90
37380;DHT22;23252;-33.992;18.480;2023-06-14T03:53:35;15.20;99.90
37380;DHT22;23252;-33.992;18.480;2023-06-14T03:56:02;15.10;99.90
37380;DHT22;23252;-33.992;18.480;2023-06-14T03:58:29;15.00;99.90
37380;DHT22;23252;-33.992;18.480;2023-06-14T04:00:55;14.90;99.90
37380;DHT22;23252;-33.992;18.480;2023-06-14T04:03:27;14.90;99.90
37380;DHT22;23252;-33.992;18.480;2023-06-14T04:05:55;14.80;99.90
37380;DHT22;23252;-33.992;18.480;2023-06-14T04:08:22;14.80;99.90
37380;DHT22;23252;-33.992;18.480;2023-06-14T04:10:50;14.80;99.90
37380;DHT22;23252;-33.992;18.480;2023-06-14T04:13:17;14.80;99.90
37380;DHT22;23252;-33.992;18.480;2023-06-14T04:15:43;14.80;99.90
37380;DHT22;23252;-33.992;18.480;2023-06-14T04:18:11;14.80;99.90
37380;DHT22;23252;-33.992;18.480;2023-06-14T04:20:38;14.80;99.90
37380;DHT22;23252;-33.992;18.480;2023-06-14T04:23:16;14.80;99.90
37380;DHT22;23252;-33.992;18.480;2023-06-14T04:25:44;14.80;99.90
37380;DHT22;23252;-33.992;18.480;2023-06-14T04:28:14;14.80;99.90
37380;DHT22;23252;-33.992;18.480;2023-06-14T04:30:45;14.80;99.90
37380;DHT22;23252;-33.992;18.480;2023-06-14T04:33:13;14.80;99.90
37380;DHT22;23252;-33.992;18.480;2023-06-14T04:35:40;14.80;99.90
37380;DHT22;23252;-33.992;18.480;2023-06-14T04:38:07;14.70;99.90
37380;DHT22;23252;-33.992;18.480;2023-06-14T04:40:36;14.70;99.90
37380;DHT22;23252;-33.992;18.480;2023-06-14T04:43:12;14.80;99.90
37380;DHT22;23252;-33.992;18.480;2023-06-14T04:45:38;14.80;99.90
37380;DHT22;23252;-33.992;18.480;2023-06-14T04:48:06;14.80;99.90
37380;DHT22;23252;-33.992;18.480;2023-06-14T04:50:32;14.80;99.90
37380;DHT22;23252;-33.992;18.480;2023-06-14T04:53:01;14.90;99.90
37380;DHT22;23252;-33.992;18.480;2023-06-14T04:55:28;14.90;99.90
37380;DHT22;23252;-33.992;18.480;2023-06-14T04:57:58;15.00;99.90
37380;DHT22;23252;-33.992;18.480;2023-06-14T05:00:25;15.00;99.90
37380;DHT22;23252;-33.992;18.480;2023-06-14T05:02:52;15.10;99.90
37380;DHT22;23252;-33.992;18.480;2023-06-14T05:05:19;15.10;99.90
37380;DHT22;23252;-33.992;18.480;2023-06-14T05:07:45;15.10;99.90
37380;DHT22;23252;-33.992;18.480;2023-06-14T05:10:12;15.10;99.90
37380;DHT22;23252;-33.992;18.480;2023-06-14T05:12:38;15.10;99.90
37380;DHT22;23252;-33.992;18.480;2023-06-14T05:15:06;15.20;99.90
37380;DHT22;23252;-33.992;18.480;2023-06-14T05:17:34;15.20;99.90
37380;DHT22;23252;-33.992;18.480;2023-06-14T05:20:02;15.30;99.90
37380;DHT22;23252;-33.992;18.480;2023-06-14T05:22:29;15.30;99.90
37380;DHT22;23252;-33.992;18.480;2023-06-14T05:24:56;15.30;99.90
37380;DHT22;23252;-33.992;18.480;2023-06-14T05:27:22;15.30;99.90
37380;DHT22;23252;-33.992;18.480;2023-06-14T05:29:49;15.30;99.90
37380;DHT22;23252;-33.992;18.480;2023-06-14T05:32:16;15.30;99.90
37380;DHT22;23252;-33.992;18.480;2023-06-14T05:34:43;15.40;99.90
37380;DHT22;23252;-33.992;18.480;2023-06-14T05:37:10;15.50;99.90
37380;DHT22;23252;-33.992;18.480;2023-06-14T05:39:37;15.50;99.90
37380;DHT22;23252;-33.992;18.480;2023-06-14T05:42:04;15.60;99.90
37380;DHT22;23252;-33.992;18.480;2023-06-14T05:44:30;15.60;99.90
37380;DHT22;23252;-33.992;18.480;2023-06-14T05:46:57;15.60;99.90
37380;DHT22;23252;-33.992;18.480;2023-06-14T05:49:23;15.60;99.90
37380;DHT22;23252;-33.992;18.480;2023-06-14T05:51:49;15.60;99.90
37380;DHT22;23252;-33.992;18.480;2023-06-14T05:54:17;15.60;99.90
37380;DHT22;23252;-33.992;18.480;2023-06-14T05:56:43;15.70;99.90
37380;DHT22;23252;-33.992;18.480;2023-06-14T05:59:10;15.70;99.90
37380;DHT22;23252;-33.992;18.480;2023-06-14T06:01:36;15.60;99.90
37380;DHT22;23252;-33.992;18.480;2023-06-14T06:04:03;15.60;99.90
37380;DHT22;23252;-33.992;18.480;2023-06-14T06:06:29;15.60;99.90
37380;DHT22;23252;-33.992;18.480;2023-06-14T06:08:56;15.60;99.90
37380;DHT22;23252;-33.992;18.480;2023-06-14T06:11:23;15.50;99.90
37380;DHT22;23252;-33.992;18.480;2023-06-14T06:13:49;15.50;99.90
37380;DHT22;23252;-33.992;18.480;2023-06-14T06:16:16;15.50;99.90
37380;DHT22;23252;-33.992;18.480;2023-06-14T06:18:43;15.50;99.90
37380;DHT22;23252;-33.992;18.480;2023-06-14T06:21:09;15.40;99.90
37380;DHT22;23252;-33.992;18.480;2023-06-14T06:23:36;15.40;99.90
37380;DHT22;23252;-33.992;18.480;2023-06-14T06:26:03;15.40;99.90
37380;DHT22;23252;-33.992;18.480;2023-06-14T06:28:30;15.40;99.90
37380;DHT22;23252;-33.992;18.480;2023-06-14T06:30:56;15.30;99.90
37380;DHT22;23252;-33.992;18.480;2023-06-14T06:33:23;15.30;99.90
37380;DHT22;23252;-33.992;18.480;2023-06-14T06:35:49;15.30;99.90
37380;DHT22;23252;-33.992;18.480;2023-06-14T06:38:16;15.30;99.90
37380;DHT22;23252;-33.992;18.480;2023-06-14T06:40:44;15.30;99.90
37380;DHT22;23252;-33.992;18.480;2023-06-14T06:43:11;15.30;99.90
37380;DHT22;23252;-33.992;18.480;2023-06-14T06:45:43;15.20;99.90
37380;DHT22;23252;-33.992;18.480;2023-06-14T06:48:09;15.20;99.90
37380;DHT22;23252;-33.992;18.480;2023-06-14T06:50:36;15.30;99.90
37380;DHT22;23252;-33.992;18.480;2023-06-14T06:53:03;15.20;99.90
37380;DHT22;23252;-33.992;18.480;2023-06-14T06:55:30;15.20;99.90
37380;DHT22;23252;-33.992;18.480;2023-06-14T06:57:57;15.20;99.90
37380;DHT22;23252;-33.992;18.480;2023-06-14T07:00:23;15.20;99.90
37380;DHT22;23252;-33.992;18.480;2023-06-14T07:02:50;15.30;99.90
37380;DHT22;23252;-33.992;18.480;2023-06-14T07:05:16;15.30;99.90
37380;DHT22;23252;-33.992;18.480;2023-06-14T07:07:43;15.40;99.90
37380;DHT22;23252;-33.992;18.480;2023-06-14T07:10:09;15.40;99.90
37380;DHT22;23252;-33.992;18.480;2023-06-14T07:12:36;15.50;99.90
37380;DHT22;23252;-33.992;18.480;2023-06-14T07:15:06;15.40;99.90
37380;DHT22;23252;-33.992;18.480;2023-06-14T07:17:35;15.40;99.90
37380;DHT22;23252;-33.992;18.480;2023-06-14T07:20:03;15.40;99.90
37380;DHT22;23252;-33.992;18.480;2023-06-14T07:22:40;15.40;99.90
37380;DHT22;23252;-33.992;18.480;2023-06-14T07:25:10;15.50;99.90
37380;DHT22;23252;-33.992;18.480;2023-06-14T07:27:41;15.60;99.90
37380;DHT22;23252;-33.992;18.480;2023-06-14T07:30:08;15.60;99.90
37380;DHT22;23252;-33.992;18.480;2023-06-14T07:32:36;15.60;99.90
37380;DHT22;23252;-33.992;18.480;2023-06-14T07:35:03;15.60;99.90
37380;DHT22;23252;-33.992;18.480;2023-06-14T07:37:29;15.60;99.90
37380;DHT22;23252;-33.992;18.480;2023-06-14T07:39:56;15.60;99.90
37380;DHT22;23252;-33.992;18.480;2023-06-14T07:42:23;15.60;99.90
37380;DHT22;23252;-33.992;18.480;2023-06-14T07:44:51;15.70;99.90
37380;DHT22;23252;-33.992;18.480;2023-06-14T07:47:19;15.70;99.90
37380;DHT22;23252;-33.992;18.480;2023-06-14T07:49:46;15.80;99.90
37380;DHT22;23252;-33.992;18.480;2023-06-14T07:52:12;15.80;99.90
37380;DHT22;23252;-33.992;18.480;2023-06-14T07:54:39;15.80;99.90
37380;DHT22;23252;-33.992;18.480;2023-06-14T07:57:07;15.80;99.90
37380;DHT22;23252;-33.992;18.480;2023-06-14T07:59:33;15.80;99.90
37380;DHT22;23252;-33.992;18.480;2023-06-14T08:02:00;15.80;99.90
37380;DHT22;23252;-33.992;18.480;2023-06-14T08:04:26;15.80;99.90
37380;DHT22;23252;-33.992;18.480;2023-06-14T08:06:53;15.80;99.90
37380;DHT22;23252;-33.992;18.480;2023-06-14T08:09:20;15.80;99.90
37380;DHT22;23252;-33.992;18.480;2023-06-14T08:11:46;15.80;99.90
37380;DHT22;23252;-33.992;18.480;2023-06-14T08:14:16;15.80;99.90
37380;DHT22;23252;-33.992;18.480;2023-06-14T08:16:42;15.80;99.90
37380;DHT22;23252;-33.992;18.480;2023-06-14T08:19:09;15.90;99.90
37380;DHT22;23252;-33.992;18.480;2023-06-14T08:21:36;15.90;99.90
37380;DHT22;23252;-33.992;18.480;2023-06-14T08:24:03;15.90;99.90
37380;DHT22;23252;-33.992;18.480;2023-06-14T08:26:30;15.80;99.90
37380;DHT22;23252;-33.992;18.480;2023-06-14T08:28:58;15.90;99.90
37380;DHT22;23252;-33.992;18.480;2023-06-14T08:31:24;15.90;99.90
37380;DHT22;23252;-33.992;18.480;2023-06-14T08:33:51;15.90;99.90
37380;DHT22;23252;-33.992;18.480;2023-06-14T08:36:17;15.90;99.90
37380;DHT22;23252;-33.992;18.480;2023-06-14T08:38:44;16.00;99.90
37380;DHT22;23252;-33.992;18.480;2023-06-14T08:41:12;16.00;99.90
37380;DHT22;23252;-33.992;18.480;2023-06-14T08:43:43;16.10;99.90
37380;DHT22;23252;-33.992;18.480;2023-06-14T08:46:10;16.10;99.90
37380;DHT22;23252;-33.992;18.480;2023-06-14T08:48:39;16.10;99.90
37380;DHT22;23252;-33.992;18.480;2023-06-14T08:51:06;16.20;99.90
37380;DHT22;23252;-33.992;18.480;2023-06-14T08:53:35;16.20;99.90
37380;DHT22;23252;-33.992;18.480;2023-06-14T08:56:08;16.30;99.90
37380;DHT22;23252;-33.992;18.480;2023-06-14T08:58:42;16.30;99.90
37380;DHT22;23252;-33.992;18.480;2023-06-14T09:01:11;16.30;99.90
37380;DHT22;23252;-33.992;18.480;2023-06-14T09:03:43;16.30;99.90
37380;DHT22;23252;-33.992;18.480;2023-06-14T09:06:10;16.30;99.90
37380;DHT22;23252;-33.992;18.480;2023-06-14T09:08:48;16.30;99.90
37380;DHT22;23252;-33.992;18.480;2023-06-14T09:11:18;16.20;99.90
37380;DHT22;23252;-33.992;18.480;2023-06-14T09:13:46;16.30;99.90
37380;DHT22;23252;-33.992;18.480;2023-06-14T09:16:13;16.30;99.90
37380;DHT22;23252;-33.992;18.480;2023-06-14T09:18:41;16.30;99.90
37380;DHT22;23252;-33.992;18.480;2023-06-14T09:21:10;16.30;99.90
37380;DHT22;23252;-33.992;18.480;2023-06-14T09:23:37;16.30;99.90
37380;DHT22;23252;-33.992;18.480;2023-06-14T09:26:22;16.20;99.90
37380;DHT22;23252;-33.992;18.480;2023-06-14T09:28:50;16.10;99.90
37380;DHT22;23252;-33.992;18.480;2023-06-14T09:31:19;16.10;99.90
37380;DHT22;23252;-33.992;18.480;2023-06-14T09:33:48;16.10;99.90
37380;DHT22;23252;-33.992;18.480;2023-06-14T09:36:21;16.00;99.90
37380;DHT22;23252;-33.992;18.480;2023-06-14T09:39:01;16.10;99.90
37380;DHT22;23252;-33.992;18.480;2023-06-14T09:44:05;16.10;99.90
37380;DHT22;23252;-33.992;18.480;2023-06-14T09:46:33;16.10;99.90
37380;DHT22;23252;-33.992;18.480;2023-06-14T09:49:01;16.10;99.90
37380;DHT22;23252;-33.992;18.480;2023-06-14T09:51:28;16.10;99.90
37380;DHT22;23252;-33.992;18.480;2023-06-14T09:54:00;16.20;99.90
37380;DHT22;23252;-33.992;18.480;2023-06-14T09:56:29;16.20;99.90
37380;DHT22;23252;-33.992;18.480;2023-06-14T09:58:58;16.20;99.90
37380;DHT22;23252;-33.992;18.480;2023-06-14T10:01:26;16.20;99.90
37380;DHT22;23252;-33.992;18.480;2023-06-14T10:04:03;16.20;99.90
37380;DHT22;23252;-33.992;18.480;2023-06-14T10:06:31;16.20;99.90
37380;DHT22;23252;-33.992;18.480;2023-06-14T10:08:58;16.20;99.90
37380;DHT22;23252;-33.992;18.480;2023-06-14T10:11:28;16.20;99.90
37380;DHT22;23252;-33.992;18.480;2023-06-14T10:13:58;16.30;99.90
37380;DHT22;23252;-33.992;18.480;2023-06-14T10:19:27;16.20;99.90
37380;DHT22;23252;-33.992;18.480;2023-06-14T10:22:22;16.20;99.90
37380;DHT22;23252;-33.992;18.480;2023-06-14T10:24:51;16.10;99.90
37380;DHT22;23252;-33.992;18.480;2023-06-14T10:27:17;16.20;99.90
37380;DHT22;23252;-33.992;18.480;2023-06-14T10:32:27;16.10;99.90
37380;DHT22;23252;-33.992;18.480;2023-06-14T10:35:01;16.10;99.90
37380;DHT22;23252;-33.992;18.480;2023-06-14T10:37:28;16.00;99.90
37380;DHT22;23252;-33.992;18.480;2023-06-14T10:39:54;16.00;99.90
37380;DHT22;23252;-33.992;18.480;2023-06-14T10:42:21;16.00;99.90
37380;DHT22;23252;-33.992;18.480;2023-06-14T10:44:52;16.00;99.90
37380;DHT22;23252;-33.992;18.480;2023-06-14T10:47:34;16.00;99.90
37380;DHT22;23252;-33.992;18.480;2023-06-14T10:50:10;16.10;99.90
37380;DHT22;23252;-33.992;18.480;2023-06-14T10:52:40;16.20;99.90
37380;DHT22;23252;-33.992;18.480;2023-06-14T10:55:14;16.20;99.90
37380;DHT22;23252;-33.992;18.480;2023-06-14T10:57:53;16.30;99.90
37380;DHT22;23252;-33.992;18.480;2023-06-14T11:00:28;16.30;99.90
37380;DHT22;23252;-33.992;18.480;2023-06-14T11:03:22;16.40;99.90
37380;DHT22;23252;-33.992;18.480;2023-06-14T11:05:58;16.40;99.90
37380;DHT22;23252;-33.992;18.480;2023-06-14T11:11:32;16.40;99.90
37380;DHT22;23252;-33.992;18.480;2023-06-14T11:14:01;16.40;99.90
37380;DHT22;23252;-33.992;18.480;2023-06-14T11:16:29;16.40;99.90
37380;DHT22;23252;-33.992;18.480;2023-06-14T11:18:56;16.50;99.90
37380;DHT22;23252;-33.992;18.480;2023-06-14T11:21:23;16.40;99.90
37380;DHT22;23252;-33.992;18.480;2023-06-14T11:23:54;16.40;99.90
37380;DHT22;23252;-33.992;18.480;2023-06-14T11:26:26;16.40;99.90
37380;DHT22;23252;-33.992;18.480;2023-06-14T11:28:59;16.40;99.90
37380;DHT22;23252;-33.992;18.480;2023-06-14T11:31:27;16.40;99.90
37380;DHT22;23252;-33.992;18.480;2023-06-14T11:33:57;16.40;99.90
37380;DHT22;23252;-33.992;18.480;2023-06-14T11:36:29;16.40;99.90
37380;DHT22;23252;-33.992;18.480;2023-06-14T11:39:00;16.30;99.90
37380;DHT22;23252;-33.992;18.480;2023-06-14T11:41:53;16.30;99.90
37380;DHT22;23252;-33.992;18.480;2023-06-14T11:44:19;16.30;99.90
37380;DHT22;23252;-33.992;18.480;2023-06-14T11:46:45;16.30;99.90
37380;DHT22;23252;-33.992;18.480;2023-06-14T11:49:12;16.30;99.90
37380;DHT22;23252;-33.992;18.480;2023-06-14T11:51:38;16.30;99.90
37380;DHT22;23252;-33.992;18.480;2023-06-14T11:54:06;16.30;99.90
37380;DHT22;23252;-33.992;18.480;2023-06-14T11:56:33;16.30;99.90
37380;DHT22;23252;-33.992;18.480;2023-06-14T11:59:02;16.30;99.90
37380;DHT22;23252;-33.992;18.480;2023-06-14T12:01:30;16.30;99.90
37380;DHT22;23252;-33.992;18.480;2023-06-14T12:03:58;16.30;99.90
37380;DHT22;23252;-33.992;18.480;2023-06-14T12:06:29;16.30;99.90
37380;DHT22;23252;-33.992;18.480;2023-06-14T12:08:59;16.30;99.90
37380;DHT22;23252;-33.992;18.480;2023-06-14T12:11:35;16.30;99.90
37380;DHT22;23252;-33.992;18.480;2023-06-14T12:14:04;16.30;99.90
37380;DHT22;23252;-33.992;18.480;2023-06-14T12:16:32;16.30;99.90
37380;DHT22;23252;-33.992;18.480;2023-06-14T12:19:11;16.30;99.90
37380;DHT22;23252;-33.992;18.480;2023-06-14T12:21:39;16.40;99.90
37380;DHT22;23252;-33.992;18.480;2023-06-14T12:24:08;16.50;99.90
37380;DHT22;23252;-33.992;18.480;2023-06-14T12:26:41;16.50;99.90
37380;DHT22;23252;-33.992;18.480;2023-06-14T12:29:08;16.40;99.90
37380;DHT22;23252;-33.992;18.480;2023-06-14T12:31:35;16.40;99.90
37380;DHT22;23252;-33.992;18.480;2023-06-14T12:34:02;16.40;99.90
37380;DHT22;23252;-33.992;18.480;2023-06-14T12:36:29;16.40;99.90
37380;DHT22;23252;-33.992;18.480;2023-06-14T12:38:55;16.40;99.90
37380;DHT22;23252;-33.992;18.480;2023-06-14T12:41:22;16.40;99.90
37380;DHT22;23252;-33.992;18.480;2023-06-14T12:43:49;16.40;99.90
37380;DHT22;23252;-33.992;18.480;2023-06-14T12:46:15;16.40;99.90
37380;DHT22;23252;-33.992;18.480;2023-06-14T12:48:42;16.30;99.90
37380;DHT22;23252;-33.992;18.480;2023-06-14T12:51:08;16.40;99.90
37380;DHT22;23252;-33.992;18.480;2023-06-14T12:53:35;16.30;99.90
37380;DHT22;23252;-33.992;18.480;2023-06-14T12:56:01;16.30;99.90
37380;DHT22;23252;-33.992;18.480;2023-06-14T12:58:28;16.30;99.90
37380;DHT22;23252;-33.992;18.480;2023-06-14T13:00:54;16.30;99.90
37380;DHT22;23252;-33.992;18.480;2023-06-14T13:03:21;16.30;99.90
37380;DHT22;23252;-33.992;18.480;2023-06-14T13:05:48;16.30;99.90
37380;DHT22;23252;-33.992;18.480;2023-06-14T13:08:14;16.30;99.90
37380;DHT22;23252;-33.992;18.480;2023-06-14T13:10:41;16.30;99.90
37380;DHT22;23252;-33.992;18.480;2023-06-14T13:13:07;16.30;99.90
37380;DHT22;23252;-33.992;18.480;2023-06-14T13:15:34;16.40;99.90
37380;DHT22;23252;-33.992;18.480;2023-06-14T13:18:01;16.30;99.90
37380;DHT22;23252;-33.992;18.480;2023-06-14T13:20:29;16.30;99.90
37380;DHT22;23252;-33.992;18.480;2023-06-14T13:22:55;16.40;99.90
37380;DHT22;23252;-33.992;18.480;2023-06-14T13:25:22;16.40;99.90
37380;DHT22;23252;-33.992;18.480;2023-06-14T13:27:48;16.40;99.90
37380;DHT22;23252;-33.992;18.480;2023-06-14T13:30:15;16.40;99.90
37380;DHT22;23252;-33.992;18.480;2023-06-14T13:32:42;16.40;99.90
37380;DHT22;23252;-33.992;18.480;2023-06-14T13:35:08;16.30;99.90
37380;DHT22;23252;-33.992;18.480;2023-06-14T13:37:35;16.30;99.90
37380;DHT22;23252;-33.992;18.480;2023-06-14T13:40:01;16.30;99.90
37380;DHT22;23252;-33.992;18.480;2023-06-14T13:42:28;16.20;99.90
37380;DHT22;23252;-33.992;18.480;2023-06-14T13:44:58;16.20;99.90
37380;DHT22;23252;-33.992;18.480;2023-06-14T13:47:24;16.20;99.90
37380;DHT22;23252;-33.992;18.480;2023-06-14T13:49:51;15.90;99.90
37380;DHT22;23252;-33.992;18.480;2023-06-14T13:52:17;15.60;99.90
37380;DHT22;23252;-33.992;18.480;2023-06-14T13:54:44;15.50;99.90
37380;DHT22;23252;-33.992;18.480;2023-06-14T13:57:10;15.50;99.90
37380;DHT22;23252;-33.992;18.480;2023-06-14T13:59:39;15.50;99.90
37380;DHT22;23252;-33.992;18.480;2023-06-14T14:02:06;15.50;99.90
37380;DHT22;23252;-33.992;18.480;2023-06-14T14:04:33;15.40;99.90
37380;DHT22;23252;-33.992;18.480;2023-06-14T14:07:04;15.50;99.90
37380;DHT22;23252;-33.992;18.480;2023-06-14T14:09:32;15.50;99.90
37380;DHT22;23252;-33.992;18.480;2023-06-14T14:11:59;15.60;99.90
37380;DHT22;23252;-33.992;18.480;2023-06-14T14:14:26;15.60;99.90
37380;DHT22;23252;-33.992;18.480;2023-06-14T14:16:53;15.70;99.90
37380;DHT22;23252;-33.992;18.480;2023-06-14T14:19:21;15.70;99.90
37380;DHT22;23252;-33.992;18.480;2023-06-14T14:21:47;15.70;99.90
37380;DHT22;23252;-33.992;18.480;2023-06-14T14:24:14;15.70;99.90
37380;DHT22;23252;-33.992;18.480;2023-06-14T14:26:42;15.70;99.90
37380;DHT22;23252;-33.992;18.480;2023-06-14T14:29:08;15.70;99.90
37380;DHT22;23252;-33.992;18.480;2023-06-14T14:31:37;15.70;99.90
37380;DHT22;23252;-33.992;18.480;2023-06-14T14:34:04;15.70;99.90
37380;DHT22;23252;-33.992;18.480;2023-06-14T14:36:31;15.70;99.90
37380;DHT22;23252;-33.992;18.480;2023-06-14T14:38:59;15.70;99.90
37380;DHT22;23252;-33.992;18.480;2023-06-14T14:41:27;15.70;99.90
37380;DHT22;23252;-33.992;18.480;2023-06-14T14:43:53;15.70;99.90
37380;DHT22;23252;-33.992;18.480;2023-06-14T14:46:20;15.70;99.90
37380;DHT22;23252;-33.992;18.480;2023-06-14T14:48:47;15.70;99.90
37380;DHT22;23252;-33.992;18.480;2023-06-14T14:51:13;15.70;99.90
37380;DHT22;23252;-33.992;18.480;2023-06-14T14:53:40;15.60;99.90
37380;DHT22;23252;-33.992;18.480;2023-06-14T14:56:07;15.60;99.90
37380;DHT22;23252;-33.992;18.480;2023-06-14T14:58:33;15.60;99.90
37380;DHT22;23252;-33.992;18.480;2023-06-14T15:00:59;15.60;99.90
37380;DHT22;23252;-33.992;18.480;2023-06-14T15:03:26;15.70;99.90
37380;DHT22;23252;-33.992;18.480;2023-06-14T15:05:52;15.70;99.90
37380;DHT22;23252;-33.992;18.480;2023-06-14T15:08:19;15.70;99.90
37380;DHT22;23252;-33.992;18.480;2023-06-14T15:10:46;15.70;99.90
37380;DHT22;23252;-33.992;18.480;2023-06-14T15:13:14;15.70;99.90
37380;DHT22;23252;-33.992;18.480;2023-06-14T15:15:40;15.80;99.90
37380;DHT22;23252;-33.992;18.480;2023-06-14T15:18:07;15.70;99.90
37380;DHT22;23252;-33.992;18.480;2023-06-14T15:20:33;15.80;99.90
37380;DHT22;23252;-33.992;18.480;2023-06-14T15:23:00;15.70;99.90